Time;durP1;ratioP1;P1;durP2;ratioP2;P2;SDS_P1;SDS_P2;PMS_P1;PMS_P2;Temp;Humidity;BMP_temperature;BMP_pressure;BME280_temperature;BME280_humidity;BME280_pressure;Samples;Min_cycle;Max_cycle;Signal;HPM_P1;HPM_P2
2022/04/21 00:01:35;;;;;;;;;;;7.00;94.40;;;6.39;73.09;96662.31;5024346;28;19923;-67
2022/04/21 00:04:01;;;;;;;;;;;7.00;94.60;;;6.39;73.71;96658.81;5044702;28;19956;-67
2022/04/21 00:06:26;;;;;;;;;;;7.00;94.90;;;6.35;73.94;96660.66;5017038;28;20388;-66
2022/04/21 00:08:52;;;;;;;;;;;7.00;95.10;;;6.35;74.38;96659.81;5026192;28;19979;-67
2022/04/21 00:11:18;;;;;;;;;;;6.90;95.20;;;6.31;74.70;96649.44;5025015;28;19956;-67
2022/04/21 00:13:43;;;;;;;;;;;6.90;95.40;;;6.26;74.93;96656.59;5023176;28;20380;-67
2022/04/21 00:16:09;;;;;;;;;;;6.90;95.60;;;6.26;75.57;96646.13;5030754;28;20592;-67
2022/04/21 00:18:35;;;;;;;;;;;6.80;95.90;;;6.26;75.70;96648.75;5033014;28;19921;-67
2022/04/21 00:21:01;;;;;;;;;;;6.80;96.20;;;6.13;76.30;96636.94;5030186;28;19968;-66
2022/04/21 00:23:27;;;;;;;;;;;6.80;96.40;;;6.15;77.24;96642.13;5033470;28;19924;-67
2022/04/21 00:25:54;;;;;;;;;;;6.80;96.80;;;6.04;77.57;96638.06;5032431;28;19917;-67
2022/04/21 00:28:20;;;;;;;;;;;6.70;97.10;;;6.02;78.35;96645.13;5033703;28;19925;-67
2022/04/21 00:30:46;;;;;;;;;;;6.60;97.30;;;6.07;77.81;96642.38;5031411;28;20029;-67
2022/04/21 00:33:11;;;;;;;;;;;6.60;97.60;;;6.06;77.85;96646.72;5030115;28;19929;-66
2022/04/21 00:35:37;;;;;;;;;;;6.70;97.80;;;5.90;79.11;96638.47;5032777;28;19952;-66
2022/04/21 00:38:03;;;;;;;;;;;6.50;98.10;;;5.76;79.17;96632.81;5032472;28;19927;-67
2022/04/21 00:40:29;;;;;;;;;;;6.40;98.40;;;5.73;79.89;96643.34;5031742;28;20460;-67
2022/04/21 00:42:55;;;;;;;;;;;6.30;98.80;;;5.63;80.07;96631.44;5025609;28;20194;-67
2022/04/21 00:45:21;;;;;;;;;;;6.20;99.10;;;5.53;80.11;96634.34;5035660;28;19932;-65
2022/04/21 00:47:49;;;;;;;;;;;6.10;99.30;;;5.46;80.82;96635.41;5033661;28;20372;-66
2022/04/21 00:50:17;;;;;;;;;;;6.10;99.80;;;5.42;81.07;96638.16;5033944;28;20002;-66
2022/04/21 00:52:43;;;;;;;;;;;6.00;99.90;;;5.33;81.76;96628.84;5026815;28;19927;-67
2022/04/21 00:55:09;;;;;;;;;;;6.00;99.90;;;5.28;82.10;96622.88;5031567;28;20293;-67
2022/04/21 00:57:36;;;;;;;;;;;5.90;99.90;;;5.28;82.03;96628.09;5034078;28;19932;-66
2022/04/21 01:00:03;;;;;;;;;;;5.90;99.90;;;5.24;82.26;96623.84;5033849;28;19921;-67
2022/04/21 01:05:15;;;;;;;;;;;5.80;99.90;;;5.22;83.11;96620.41;5040161;28;19931;-67
2022/04/21 01:07:41;;;;;;;;;;;5.80;99.90;;;5.25;83.78;96625.56;5034806;28;20265;-67
2022/04/21 01:10:07;;;;;;;;;;;5.90;99.90;;;5.28;83.99;96622.88;5037699;28;19928;-67
2022/04/21 01:12:33;;;;;;;;;;;5.90;99.90;;;5.29;84.23;96628.06;5034328;28;20312;-68
2022/04/21 01:14:58;;;;;;;;;;;5.90;99.90;;;5.27;84.66;96614.16;5036202;28;20058;-67
2022/04/21 01:17:33;;;;;;;;;;;5.90;99.90;;;5.33;84.75;96624.44;5033045;28;19917;-68
2022/04/21 01:19:58;;;;;;;;;;;6.00;99.90;;;5.31;84.97;96626.25;5038016;28;19921;-66
2022/04/21 01:22:24;;;;;;;;;;;5.90;99.90;;;5.39;84.86;96625.19;5038277;28;20292;-67
2022/04/21 01:24:49;;;;;;;;;;;6.00;99.90;;;5.35;84.85;96627.88;5034684;28;19922;-68
2022/04/21 01:27:15;;;;;;;;;;;6.00;99.90;;;5.29;85.61;96625.44;5038271;28;21073;-66
2022/04/21 01:29:43;;;;;;;;;;;5.90;99.90;;;5.19;86.23;96628.34;5036493;28;19925;-67
2022/04/21 01:32:09;;;;;;;;;;;5.80;99.90;;;5.06;87.30;96623.47;5038722;28;20563;-67
2022/04/21 01:34:34;;;;;;;;;;;5.70;99.90;;;4.93;88.04;96633.38;5035320;28;20381;-67
2022/04/21 01:42:28;;;;;;;;;;;5.30;99.90;;;4.52;90.06;96611.84;5035903;28;19931;-67
2022/04/21 01:44:54;;;;;;;;;;;5.20;99.90;;;4.53;90.51;96625.75;5035331;28;20827;-66
2022/04/21 01:47:19;;;;;;;;;;;5.20;99.90;;;4.46;90.96;96624.19;5035150;28;19988;-68
2022/04/21 01:49:45;;;;;;;;;;;5.10;99.90;;;4.39;91.58;96621.69;5034585;28;20438;-67
2022/04/21 01:52:11;;;;;;;;;;;5.00;99.90;;;4.36;91.92;96626.16;5037026;28;19925;-67
2022/04/21 01:54:36;;;;;;;;;;;5.00;99.90;;;4.30;92.43;96624.53;5034122;28;20404;-67
2022/04/21 01:57:02;;;;;;;;;;;5.00;99.90;;;4.25;92.82;96618.59;5038701;28;19917;-66
2022/04/21 01:59:28;;;;;;;;;;;4.90;99.90;;;4.25;93.15;96615.97;5035105;28;19924;-66
2022/04/21 02:01:53;;;;;;;;;;;4.90;99.90;;;4.18;93.07;96611.78;5033084;28;19921;-66
2022/04/21 02:04:19;;;;;;;;;;;4.90;99.90;;;4.23;93.65;96620.38;5032385;28;20023;-66
2022/04/21 02:06:44;;;;;;;;;;;4.80;99.90;;;4.25;93.77;96618.59;5037359;28;20020;-67
2022/04/21 02:09:10;;;;;;;;;;;4.90;99.90;;;4.29;93.71;96616.75;5034967;28;19932;-67
2022/04/21 02:11:36;;;;;;;;;;;4.90;99.90;;;4.35;93.87;96619.22;5035132;28;20419;-67
2022/04/21 02:14:01;;;;;;;;;;;5.00;99.90;;;4.40;93.71;96607.78;5034412;28;19991;-67
2022/04/21 02:16:27;;;;;;;;;;;5.00;99.90;;;4.44;93.98;96605.09;5037567;28;20019;-67
2022/04/21 02:18:52;;;;;;;;;;;5.00;99.90;;;4.47;93.54;96607.59;5031525;28;19921;-67
2022/04/21 02:21:18;;;;;;;;;;;5.10;99.90;;;4.27;93.83;96569.84;5028116;28;19979;-67
2022/04/21 02:23:44;;;;;;;;;;;5.10;99.90;;;4.47;93.86;96594.53;5035955;28;19950;-67
2022/04/21 02:26:11;;;;;;;;;;;5.10;99.90;;;4.48;93.96;96596.28;5030694;28;19920;-67
2022/04/21 02:28:38;;;;;;;;;;;5.10;99.90;;;4.50;94.22;96590.09;5034746;28;19942;-67
2022/04/21 02:31:04;;;;;;;;;;;5.10;99.90;;;4.45;94.43;96581.56;5036107;28;20007;-66
2022/04/21 02:33:30;;;;;;;;;;;5.10;99.90;;;4.56;94.25;96595.19;5025077;28;19927;-67
2022/04/21 02:35:56;;;;;;;;;;;5.20;99.90;;;4.57;94.16;96593.41;5026215;28;19925;-66
2022/04/21 02:38:22;;;;;;;;;;;5.20;99.90;;;4.56;94.32;96599.56;5028186;28;19925;-67
2022/04/21 02:40:48;;;;;;;;;;;5.20;99.90;;;4.50;95.00;96584.88;5028202;28;19971;-67
2022/04/21 02:43:14;;;;;;;;;;;5.20;99.90;;;4.51;94.75;96596.22;5022496;28;19988;-67
2022/04/21 02:45:40;;;;;;;;;;;5.10;99.90;;;4.46;95.21;96587.63;5015319;28;19920;-67
2022/04/21 02:48:06;;;;;;;;;;;5.10;99.90;;;4.40;95.64;96580.81;5044235;28;19928;-66
2022/04/21 02:50:32;;;;;;;;;;;5.00;99.90;;;4.36;96.10;96592.22;5026831;28;19917;-66
2022/04/21 02:52:58;;;;;;;;;;;5.00;99.90;;;4.31;96.61;96581.91;5023862;28;19925;-66
2022/04/21 02:58:08;;;;;;;;;;;4.90;99.90;;;4.14;97.33;96571.88;5026364;28;19924;-67
2022/04/21 03:00:33;;;;;;;;;;;4.80;99.90;;;4.15;97.67;96577.97;5026267;28;19925;-66
2022/04/21 03:02:59;;;;;;;;;;;4.80;99.90;;;4.12;97.75;96580.63;5024196;28;19954;-67
2022/04/21 03:05:25;;;;;;;;;;;4.70;99.90;;;4.06;98.22;96571.22;5024449;28;20177;-67
2022/04/21 03:07:50;;;;;;;;;;;4.70;99.90;;;4.00;98.61;96572.22;5024892;28;20020;-67
2022/04/21 03:10:16;;;;;;;;;;;4.70;99.90;;;3.99;99.16;96565.28;5029066;28;20007;-66
2022/04/21 03:12:42;;;;;;;;;;;4.60;99.90;;;3.95;99.49;96568.88;5027075;28;20293;-67
2022/04/21 03:15:11;;;;;;;;;;;4.60;99.90;;;3.89;99.76;96555.09;5023606;28;19939;-66
2022/04/21 03:17:36;;;;;;;;;;;4.60;99.90;;;3.93;100.00;96564.56;5024147;28;19940;-66
2022/04/21 03:20:03;;;;;;;;;;;4.60;99.90;;;3.91;100.00;96564.63;5026325;28;20387;-67
2022/04/21 03:25:13;;;;;;;;;;;4.50;99.90;;;3.88;100.00;96569.91;5028075;28;19931;-66
2022/04/21 03:27:38;;;;;;;;;;;4.50;99.90;;;3.88;100.00;96567.28;5030753;28;19925;-67
2022/04/21 03:30:06;;;;;;;;;;;4.50;99.90;;;3.89;100.00;96557.72;5030667;28;20431;-67
2022/04/21 03:32:32;;;;;;;;;;;4.60;99.90;;;3.89;100.00;96558.56;5032991;28;19917;-66
2022/04/21 03:35:00;;;;;;;;;;;4.60;99.90;;;3.88;100.00;96559.47;5025005;28;19927;-67
2022/04/21 03:37:26;;;;;;;;;;;4.50;99.90;;;3.84;100.00;96550.00;5025076;28;19931;-66
2022/04/21 03:39:51;;;;;;;;;;;4.50;99.90;;;3.82;100.00;96554.38;5027373;28;19932;-66
2022/04/21 03:42:26;;;;;;;;;;;4.50;99.90;;;3.79;100.00;96557.09;5027056;28;20208;-67
2022/04/21 03:44:52;;;;;;;;;;;4.40;99.90;;;3.74;100.00;96543.28;5053921;22;20799;-45
2022/04/21 03:47:18;;;;;;;;;;;4.40;99.90;;;3.74;100.00;96561.56;5045232;28;19916;-45
2022/04/21 03:49:44;;;;;;;;;;;4.40;99.90;;;3.72;100.00;96558.97;5050377;28;19921;-47
2022/04/21 03:52:10;;;;;;;;;;;4.40;99.90;;;3.67;100.00;96565.19;5050812;28;19922;-46
2022/04/21 03:54:36;;;;;;;;;;;4.30;99.90;;;3.56;100.00;96555.00;5051500;28;19960;-46
2022/04/21 03:57:02;;;;;;;;;;;4.20;99.90;;;3.56;100.00;96562.81;5050574;28;19921;-48
2022/04/21 03:59:28;;;;;;;;;;;4.20;99.90;;;3.51;100.00;96562.91;5050241;28;19931;-45
2022/04/21 04:01:53;;;;;;;;;;;4.10;99.90;;;3.48;100.00;96562.13;5048205;28;19924;-46
2022/04/21 04:04:19;;;;;;;;;;;4.20;99.90;;;3.48;100.00;96562.97;5045500;28;19932;-46
2022/04/21 04:12:13;;;;;;;;;;;4.20;99.90;;;3.47;100.00;96556.06;5049107;28;19931;-46
2022/04/21 04:14:39;;;;;;;;;;;4.20;99.90;;;3.47;100.00;96560.44;5049040;28;19928;-45
2022/04/21 04:17:06;;;;;;;;;;;4.20;99.90;;;3.50;100.00;96556.00;5047258;28;19970;-47
2022/04/21 04:19:33;;;;;;;;;;;4.20;99.90;;;3.54;100.00;96560.25;5049115;28;19987;-46
2022/04/21 04:22:00;;;;;;;;;;;4.30;99.90;;;3.58;100.00;96556.69;5047968;28;19924;-45
2022/04/21 04:24:26;;;;;;;;;;;4.30;99.90;;;3.65;100.00;96561.75;5049908;28;19982;-47
2022/04/21 04:26:51;;;;;;;;;;;4.30;99.90;;;3.63;100.00;96561.78;5048577;28;19924;-47
2022/04/21 04:29:22;;;;;;;;;;;4.30;99.90;;;3.66;100.00;96569.56;5048004;28;20432;-46
2022/04/21 04:31:52;;;;;;;;;;;4.40;99.90;;;3.69;100.00;96560.78;5050616;28;19916;-46
2022/04/21 04:34:18;;;;;;;;;;;4.40;99.90;;;3.69;100.00;96568.63;5045484;28;19925;-49
2022/04/21 04:36:44;;;;;;;;;;;4.40;99.90;;;3.76;100.00;96565.81;5048369;28;19943;-45
2022/04/21 04:39:12;;;;;;;;;;;4.40;99.90;;;3.79;100.00;96557.09;5053866;28;19920;-46
2022/04/21 04:44:21;;;;;;;;;;;4.50;99.90;;;3.88;100.00;96559.47;5053333;28;20127;-45
2022/04/21 04:46:47;;;;;;;;;;;4.50;99.90;;;3.86;100.00;96557.78;5053461;28;20327;-46
2022/04/21 04:49:12;;;;;;;;;;;4.50;99.90;;;3.94;100.00;96558.47;5053732;28;19959;-48
2022/04/21 04:51:41;;;;;;;;;;;4.60;99.90;;;4.00;100.00;96551.34;5053983;28;19920;-48
2022/04/21 04:54:08;;;;;;;;;;;4.70;99.90;;;4.09;100.00;96565.06;5051295;28;19929;-48
2022/04/21 04:56:35;;;;;;;;;;;4.70;99.90;;;4.16;100.00;96559.66;5052435;28;19921;-45
2022/04/21 04:59:01;;;;;;;;;;;4.80;99.90;;;4.14;100.00;96552.75;5051626;28;19954;-46
2022/04/21 05:01:40;;;;;;;;;;;4.80;99.90;;;4.19;100.00;96556.09;5054213;28;19951;-45
2022/04/21 05:04:14;;;;;;;;;;;4.80;99.90;;;4.21;100.00;96559.53;5054004;28;20404;-45
2022/04/21 05:06:44;;;;;;;;;;;4.90;99.90;;;4.27;100.00;96555.91;5052483;28;19978;-46
2022/04/21 05:09:13;;;;;;;;;;;4.90;99.90;;;4.34;100.00;96552.25;5054789;28;19924;-45
2022/04/21 05:11:40;;;;;;;;;;;5.00;99.90;;;4.42;100.00;96557.28;5056257;28;19931;-45
2022/04/21 05:14:09;;;;;;;;;;;5.10;99.90;;;4.51;100.00;96557.88;5055258;28;20261;-46
2022/04/21 05:16:36;;;;;;;;;;;5.20;99.90;;;4.62;100.00;96556.75;5053844;28;19924;-47
2022/04/21 05:19:15;;;;;;;;;;;5.30;99.90;;;4.72;100.00;96556.47;5056791;28;20181;-45
2022/04/21 05:21:42;;;;;;;;;;;5.30;99.90;;;4.87;100.00;96556.94;5053966;28;19920;-46
2022/04/21 05:24:08;;;;;;;;;;;5.50;99.90;;;4.97;99.54;96558.38;5054393;28;19925;-48
2022/04/21 05:26:34;;;;;;;;;;;5.60;99.90;;;5.06;98.94;96554.66;5052073;28;19924;-46
2022/04/21 05:31:54;;;;;;;;;;;5.70;99.90;;;5.21;98.15;96550.75;5055229;28;19963;-47
2022/04/21 05:34:19;;;;;;;;;;;5.80;99.90;;;5.43;96.16;96553.59;5057865;28;19929;-47
2022/04/21 05:36:45;;;;;;;;;;;6.00;99.90;;;5.45;95.86;96546.53;5053650;28;19920;-51
2022/04/21 05:39:11;;;;;;;;;;;6.10;99.90;;;5.38;95.70;96534.56;5052792;28;20284;-48
2022/04/21 05:41:37;;;;;;;;;;;6.10;99.90;;;5.57;95.53;96555.78;5050102;28;20115;-50
2022/04/21 05:44:03;;;;;;;;;;;6.20;99.90;;;5.64;95.38;96552.94;5054095;28;19920;-47
2022/04/21 05:46:29;;;;;;;;;;;6.30;99.90;;;5.68;95.50;96554.53;5055063;28;19927;-49
2022/04/21 05:48:55;;;;;;;;;;;6.30;99.90;;;5.77;95.05;96555.16;5054728;28;20299;-48
2022/04/21 05:51:21;;;;;;;;;;;6.30;99.90;;;5.77;95.13;96547.31;5054201;28;20016;-49
2022/04/21 05:53:48;;;;;;;;;;;6.40;99.90;;;5.89;94.93;96554.78;5055921;28;19920;-47
2022/04/21 05:56:14;;;;;;;;;;;6.50;99.90;;;5.95;94.69;96553.72;5057294;28;20005;-49
2022/04/21 05:58:40;;;;;;;;;;;6.50;99.90;;;5.98;94.61;96549.28;5052965;28;20016;-49
2022/04/21 06:01:10;;;;;;;;;;;6.60;99.90;;;6.09;93.66;96549.78;5055262;28;20387;-47
2022/04/21 06:03:41;;;;;;;;;;;6.70;99.90;;;6.14;92.74;96551.38;5050488;28;19964;-48
2022/04/21 06:06:08;;;;;;;;;;;6.70;99.90;;;6.20;92.30;96552.03;5054621;28;19955;-51
2022/04/21 06:08:34;;;;;;;;;;;6.80;99.90;;;6.09;92.17;96535.84;5055794;28;19923;-48
2022/04/21 06:10:59;;;;;;;;;;;6.90;99.90;;;6.28;92.53;96547.41;5057091;28;19920;-49
2022/04/21 06:13:25;;;;;;;;;;;6.90;99.90;;;6.32;92.48;96548.19;5057478;28;19932;-48
2022/04/21 06:15:51;;;;;;;;;;;7.00;99.90;;;6.31;90.85;96528.13;5049370;28;19970;-47
2022/04/21 06:18:18;;;;;;;;;;;7.00;99.90;;;6.47;89.40;96547.63;5049195;28;19928;-47
2022/04/21 06:20:46;;;;;;;;;;;7.10;99.90;;;6.58;89.42;96542.03;5048032;28;20443;-46
2022/04/21 06:23:12;;;;;;;;;;;7.20;99.90;;;6.68;89.41;96546.03;5047174;28;19931;-46
2022/04/21 06:25:38;;;;;;;;;;;7.30;99.90;;;6.81;87.84;96543.84;5038382;28;20383;-48
2022/04/21 06:28:04;;;;;;;;;;;7.40;99.90;;;6.92;86.75;96546.09;5050886;28;19924;-48
2022/04/21 06:30:31;;;;;;;;;;;7.50;99.90;;;7.02;86.94;96536.97;5054578;28;20663;-51
2022/04/21 06:32:58;;;;;;;;;;;7.60;99.90;;;7.10;86.85;96535.84;5051652;28;19920;-49
2022/04/21 06:35:25;;;;;;;;;;;7.70;99.90;;;7.16;86.16;96535.59;5050757;28;19929;-47
2022/04/21 06:37:54;;;;;;;;;;;7.80;99.90;;;7.23;86.23;96539.72;5052654;28;19924;-49
2022/04/21 06:40:20;;;;;;;;;;;7.90;99.90;;;7.37;85.51;96544.44;5050409;28;19925;-47
2022/04/21 06:42:46;;;;;;;;;;;7.90;99.90;;;7.43;82.33;96531.09;5045937;28;19994;-49
2022/04/21 06:48:02;;;;;;;;;;;8.10;99.90;;;7.53;82.74;96532.44;5056055;28;19932;-46
2022/04/21 06:50:35;;;;;;;;;;;8.20;99.90;;;7.73;80.67;96549.19;5055082;28;19928;-50
2022/04/21 06:53:02;;;;;;;;;;;8.30;99.90;;;7.75;81.71;96548.22;5047040;28;20404;-46
2022/04/21 06:55:28;;;;;;;;;;;8.40;99.90;;;7.82;80.78;96549.69;5050896;28;19931;-50
2022/04/21 06:57:54;;;;;;;;;;;8.50;99.90;;;7.95;79.35;96549.19;5056100;28;19924;-46
2022/04/21 07:00:20;;;;;;;;;;;8.60;99.90;;;8.01;79.51;96531.41;5052640;28;20043;-47
2022/04/21 07:02:45;;;;;;;;;;;8.60;99.90;;;8.19;80.07;96547.34;5049928;28;19920;-46
2022/04/21 07:05:13;;;;;;;;;;;8.80;99.90;;;8.39;77.53;96554.41;5047806;28;19920;-46
2022/04/21 07:07:39;;;;;;;;;;;8.90;99.90;;;8.46;77.01;96545.38;5046372;28;19920;-50
2022/04/21 07:10:05;;;;;;;;;;;9.00;99.90;;;8.57;76.11;96550.19;5050603;28;19931;-49
2022/04/21 07:12:31;;;;;;;;;;;9.10;99.90;;;8.70;75.28;96555.75;5052659;28;19924;-50
2022/04/21 07:14:58;;;;;;;;;;;9.30;99.90;;;8.70;74.11;96545.25;5052871;28;19936;-46
2022/04/21 07:17:24;;;;;;;;;;;9.30;99.90;;;8.85;73.02;96546.38;5052593;28;19920;-50
2022/04/21 07:19:49;;;;;;;;;;;9.40;99.90;;;8.86;72.49;96548.91;5047321;28;20368;-47
2022/04/21 07:22:15;;;;;;;;;;;9.50;99.90;;;8.95;72.13;96553.78;5052982;28;19916;-49
2022/04/21 07:24:41;;;;;;;;;;;9.50;99.90;;;8.91;71.16;96554.81;5047719;28;19978;-49
2022/04/21 07:27:07;;;;;;;;;;;9.60;99.90;;;9.00;70.81;96550.94;5046681;28;20026;-49
2022/04/21 07:29:34;;;;;;;;;;;9.60;99.90;;;9.02;70.92;96540.34;5050397;28;20390;-46
2022/04/21 07:31:59;;;;;;;;;;;9.60;99.90;;;9.16;70.29;96548.50;5049492;28;20359;-49
2022/04/21 07:34:25;;;;;;;;;;;9.80;99.90;;;9.29;70.26;96552.25;5046067;28;19928;-47
2022/04/21 07:36:51;;;;;;;;;;;9.80;99.90;;;9.45;70.43;96552.41;5050698;28;19963;-47
2022/04/21 07:39:18;;;;;;;;;;;10.00;99.90;;;9.56;68.26;96549.28;5050634;28;20417;-48
2022/04/21 07:41:44;;;;;;;;;;;10.10;99.90;;;9.67;68.47;96543.53;5051995;28;20337;-49
2022/04/21 07:44:10;;;;;;;;;;;10.10;99.90;;;9.71;67.69;96548.59;5054213;28;20015;-48
2022/04/21 07:46:36;;;;;;;;;;;10.20;99.90;;;9.85;66.47;96545.31;5050786;28;19986;-48
2022/04/21 07:51:46;;;;;;;;;;;10.40;99.90;;;9.89;66.73;96543.38;5048020;28;20049;-46
2022/04/21 07:54:12;;;;;;;;;;;10.50;99.90;;;10.02;67.58;96541.84;5046412;28;21279;-46
2022/04/21 07:56:38;;;;;;;;;;;10.50;99.90;;;10.13;64.43;96541.31;5049393;28;19973;-47
2022/04/21 07:59:03;;;;;;;;;;;10.60;99.90;;;10.15;64.05;96536.00;5051069;28;19929;-49
2022/04/21 08:01:29;;;;;;;;;;;10.70;99.90;;;10.10;64.75;96523.03;5051467;28;19916;-46
2022/04/21 08:03:55;;;;;;;;;;;10.70;99.90;;;10.29;64.60;96534.38;5053768;28;19924;-48
2022/04/21 08:06:20;;;;;;;;;;;10.70;99.90;;;10.21;64.55;96526.00;5049956;28;19924;-46
2022/04/21 08:08:47;;;;;;;;;;;10.80;99.90;;;10.34;64.98;96542.09;5053184;28;19957;-45
2022/04/21 08:11:12;;;;;;;;;;;10.80;99.90;;;10.42;64.82;96529.38;5048880;28;19924;-47
2022/04/21 08:13:38;;;;;;;;;;;10.90;99.90;;;10.62;63.68;96533.66;5052343;28;19948;-45
2022/04/21 08:16:03;;;;;;;;;;;11.00;99.90;;;10.67;64.27;96534.25;5050123;28;20454;-47
2022/04/21 08:18:29;;;;;;;;;;;11.10;99.90;;;10.81;62.85;96535.34;5056172;28;20417;-46
2022/04/21 08:20:58;;;;;;;;;;;11.30;99.90;;;10.84;61.25;96528.13;5060167;28;19924;-45
2022/04/21 08:23:25;;;;;;;;;;;11.30;99.90;;;10.89;62.32;96534.03;5053904;28;19921;-45
2022/04/21 08:34:05;;;;;;;;;;;11.60;99.90;;;11.22;61.26;96541.09;5049181;28;19965;-46
2022/04/21 08:36:30;;;;;;;;;;;11.70;99.90;;;11.11;61.36;96517.06;5045921;28;20004;-48
2022/04/21 08:38:56;;;;;;;;;;;11.70;99.90;;;11.27;61.13;96527.66;5050147;28;20431;-48
2022/04/21 08:41:26;;;;;;;;;;;11.70;99.90;;;11.26;60.53;96529.41;5046243;28;19935;-47
2022/04/21 08:43:54;;;;;;;;;;;11.80;99.90;;;11.38;60.76;96519.16;5048044;28;19931;-47
2022/04/21 08:46:24;;;;;;;;;;;11.80;99.90;;;11.43;60.54;96520.59;5047553;28;19924;-46
2022/04/21 08:48:51;;;;;;;;;;;11.90;99.90;;;11.50;60.01;96523.75;5045819;28;20270;-46
2022/04/21 08:51:18;;;;;;;;;;;12.00;99.80;;;11.75;57.41;96525.88;5043493;28;19925;-47
2022/04/21 08:53:44;;;;;;;;;;;12.10;98.90;;;11.76;58.57;96519.69;5055264;28;19950;-46
2022/04/21 08:56:10;;;;;;;;;;;12.20;98.90;;;11.85;59.09;96515.66;5057489;28;19916;-46
2022/04/21 08:58:36;;;;;;;;;;;12.30;99.20;;;11.85;59.35;96520.97;5057067;28;20384;-45
2022/04/21 09:01:01;;;;;;;;;;;12.30;98.70;;;11.93;59.48;96516.09;5056989;28;19916;-47
2022/04/21 09:03:27;;;;;;;;;;;12.40;99.10;;;11.99;57.51;96505.22;5057617;28;19948;-47
2022/04/21 09:05:53;;;;;;;;;;;12.40;98.90;;;12.01;58.01;96510.41;5054903;28;20406;-46
2022/04/21 09:08:22;;;;;;;;;;;12.50;98.10;;;12.06;58.25;96521.56;5057640;28;20272;-45
2022/04/21 09:11:02;;;;;;;;;;;12.50;98.40;;;12.07;54.74;96509.19;5060338;28;20127;-45
2022/04/21 09:13:36;;;;;;;;;;;12.60;97.00;;;12.00;54.65;96508.69;5058010;28;20342;-47
2022/04/21 09:16:04;;;;;;;;;;;12.50;96.40;;;12.07;56.24;96509.19;5058329;28;19920;-49
2022/04/21 09:18:41;;;;;;;;;;;12.50;97.10;;;12.15;56.10;96504.31;5057124;28;20423;-49
2022/04/21 09:21:11;;;;;;;;;;;12.60;97.10;;;11.97;53.94;96496.53;5057640;28;20002;-46
2022/04/21 09:23:38;;;;;;;;;;;12.60;95.80;;;12.10;54.56;96507.25;5054000;28;19964;-50
2022/04/21 09:26:14;;;;;;;;;;;12.50;96.10;;;12.10;55.31;96511.69;5058818;28;20332;-48
2022/04/21 09:28:40;;;;;;;;;;;12.60;96.10;;;12.19;55.29;96506.69;5058417;28;19916;-48
2022/04/21 09:31:08;;;;;;;;;;;12.70;96.40;;;12.35;53.89;96508.47;5057818;28;20079;-47
2022/04/21 09:33:40;;;;;;;;;;;12.80;95.70;;;12.51;52.64;96509.28;5060298;28;19924;-50
2022/04/21 09:36:07;;;;;;;;;;;13.00;95.00;;;12.59;52.93;96504.38;5059314;28;19923;-47
2022/04/21 09:38:36;;;;;;;;;;;13.10;95.10;;;12.71;51.93;96494.00;5059324;28;19923;-46
2022/04/21 09:41:06;;;;;;;;;;;13.20;94.50;;;12.75;51.81;96496.38;5059294;28;19917;-46
2022/04/21 09:43:37;;;;;;;;;;;13.30;94.30;;;12.91;52.02;96491.00;5056743;28;19913;-49
2022/04/21 09:46:23;;;;;;;;;;;13.30;94.20;;;13.11;51.58;96484.47;5054346;28;20316;-50
2022/04/21 09:48:53;;;;;;;;;;;13.50;93.50;;;13.29;51.35;96486.94;5058624;28;20464;-48
2022/04/21 09:51:24;;;;;;;;;;;13.70;94.00;;;13.46;49.79;96494.72;5068853;22;19925;-68
2022/04/21 09:53:54;;;;;;;;;;;13.90;93.40;;;13.36;49.25;96493.59;5027372;28;19921;-68
2022/04/21 09:56:31;;;;;;;;;;;13.90;92.10;;;13.41;48.93;96474.78;5030527;28;19916;-68
2022/04/21 09:58:58;;;;;;;;;;;14.00;92.40;;;13.46;48.60;96473.53;5027483;28;20711;-66
2022/04/21 10:01:24;;;;;;;;;;;13.90;91.90;;;13.46;49.89;96459.41;5023578;28;19928;-66
2022/04/21 10:03:50;;;;;;;;;;;13.90;92.20;;;13.52;49.63;96456.41;5006496;28;19922;-67
2022/04/21 10:06:16;;;;;;;;;;;14.00;92.30;;;13.49;48.62;96475.97;5005771;28;20016;-68
2022/04/21 10:08:43;;;;;;;;;;;14.00;91.40;;;13.51;49.02;96463.50;5006615;28;20438;-68
2022/04/21 10:11:09;;;;;;;;;;;14.00;91.50;;;13.46;48.58;96456.78;5008318;28;19925;-68
2022/04/21 10:13:35;;;;;;;;;;;13.90;91.50;;;13.46;49.74;96456.78;5003922;28;20022;-68
2022/04/21 10:16:01;;;;;;;;;;;13.90;91.40;;;13.65;49.12;96459.94;5015251;28;20424;-66
2022/04/21 10:18:27;;;;;;;;;;;14.00;91.70;;;13.78;48.84;96448.56;5014668;28;20015;-66
2022/04/21 10:20:55;;;;;;;;;;;14.20;91.60;;;13.74;48.40;96424.91;5010377;28;20031;-66
2022/04/21 10:23:22;;;;;;;;;;;14.30;91.50;;;13.91;47.38;96449.47;5006992;28;20016;-65
2022/04/21 10:25:59;;;;;;;;;;;14.30;90.10;;;13.95;48.12;96450.97;5012273;28;19964;-67
2022/04/21 10:28:38;;;;;;;;;;;14.40;90.60;;;13.79;48.99;96448.47;5008894;28;19920;-65
2022/04/21 10:31:32;;;;;;;;;;;14.30;90.90;;;13.68;48.71;96446.50;5009808;28;20404;-64
2022/04/21 10:34:02;;;;;;;;;;;14.10;90.60;;;13.48;49.19;96445.16;5012101;28;19925;-65
2022/04/21 10:36:41;;;;;;;;;;;13.90;90.90;;;13.30;49.83;96447.13;5008691;28;19982;-65
2022/04/21 10:39:12;;;;;;;;;;;13.70;91.70;;;13.25;50.26;96443.94;5008850;28;19925;-65
2022/04/21 10:41:38;;;;;;;;;;;13.70;91.80;;;13.24;50.68;96433.44;5005524;28;19921;-65
2022/04/21 10:44:12;;;;;;;;;;;13.60;91.90;;;13.39;50.57;96432.50;5012174;28;19932;-65
2022/04/21 10:46:37;;;;;;;;;;;13.70;91.70;;;13.41;49.11;96420.00;5012880;28;20005;-65
2022/04/21 10:49:03;;;;;;;;;;;13.80;91.00;;;13.45;49.39;96418.00;5010828;28;20218;-65
2022/04/21 10:57:29;;;;;;;;;;;13.90;91.40;;;13.58;49.74;96402.19;5011951;28;19928;-65
2022/04/21 11:00:00;;;;;;;;;;;14.00;91.10;;;13.50;49.38;96377.03;5008460;28;20365;-65
2022/04/21 11:02:42;;;;;;;;;;;14.10;90.80;;;13.79;49.27;96406.06;5012526;28;20323;-66
2022/04/21 11:05:23;;;;;;;;;;;14.20;90.90;;;13.98;49.17;96396.91;5006943;28;19917;-65
2022/04/21 11:07:56;;;;;;;;;;;14.40;90.70;;;14.12;48.91;96400.34;5010327;28;19964;-66
2022/04/21 11:10:44;;;;;;;;;;;14.60;90.60;;;14.22;48.10;96403.22;5010080;28;19921;-66
2022/04/21 11:13:12;;;;;;;;;;;14.80;90.10;;;14.35;48.69;96399.72;4996908;28;19924;-66
2022/04/21 11:15:38;;;;;;;;;;;14.80;90.20;;;14.50;47.71;96402.19;5010789;28;19928;-66
2022/04/21 11:18:20;;;;;;;;;;;15.00;89.50;;;14.67;47.21;96401.03;5011977;28;19921;-66
2022/04/21 11:20:51;;;;;;;;;;;15.20;89.10;;;14.84;47.10;96383.09;5007715;28;20021;-65
2022/04/21 11:23:36;;;;;;;;;;;15.40;88.70;;;15.02;47.57;96381.81;5008443;28;19921;-66
2022/04/21 11:26:07;;;;;;;;;;;15.50;87.80;;;15.04;46.86;96379.91;4998518;28;20301;-65
2022/04/21 11:28:32;;;;;;;;;;;15.50;87.40;;;14.96;46.95;96378.75;5009977;28;19918;-66
2022/04/21 11:31:00;;;;;;;;;;;15.40;87.40;;;14.90;47.77;96372.06;5009704;28;20004;-65
2022/04/21 11:33:26;;;;;;;;;;;15.40;87.90;;;14.99;47.41;96363.44;5008072;28;19925;-65
2022/04/21 11:36:08;;;;;;;;;;;15.40;88.10;;;14.98;46.53;96345.81;5009623;28;20000;-65
2022/04/21 11:38:52;;;;;;;;;;;15.60;87.20;;;15.28;47.02;96358.69;5008950;28;20409;-65
2022/04/21 11:41:17;;;;;;;;;;;15.80;87.30;;;15.62;44.36;96366.00;5007473;28;19971;-64
2022/04/21 11:43:50;;;;;;;;;;;16.00;84.70;;;15.21;44.72;96361.91;5010541;28;19957;-64
2022/04/21 11:46:18;;;;;;;;;;;15.90;83.20;;;15.27;45.87;96364.09;5006134;28;20020;-65
2022/04/21 11:48:44;;;;;;;;;;;15.80;85.10;;;15.41;45.80;96363.09;5007829;28;19925;-64
2022/04/21 11:51:11;;;;;;;;;;;16.00;84.70;;;15.74;45.00;96351.84;5008007;28;19922;-64
2022/04/21 11:53:40;;;;;;;;;;;16.30;84.00;;;16.30;43.91;96350.34;5009533;28;20072;-64
2022/04/21 11:56:08;;;;;;;;;;;16.70;83.20;;;16.44;43.08;96358.09;5008900;28;20034;-64
2022/04/21 11:58:35;;;;;;;;;;;17.00;81.10;;;16.52;43.31;96337.06;4992597;28;19924;-64
2022/04/21 12:06:55;;;;;;;;;;;17.40;81.10;;;16.96;42.59;96334.56;5008766;28;19928;-64
2022/04/21 12:09:22;;;;;;;;;;;17.40;79.70;;;17.30;41.37;96338.03;5008986;28;19975;-64
2022/04/21 12:11:57;;;;;;;;;;;17.70;78.10;;;17.36;41.01;96326.88;5009846;28;20608;-63
2022/04/21 12:14:24;;;;;;;;;;;17.90;76.20;;;17.60;40.68;96336.50;5003320;28;19921;-64
2022/04/21 12:16:54;;;;;;;;;;;18.10;76.30;;;17.69;39.70;96332.22;5005473;28;19921;-65
2022/04/21 12:19:28;;;;;;;;;;;18.20;74.60;;;17.47;40.65;96333.97;5010835;28;19921;-66